sensor_id;sensor_type;location;lat;lon;timestamp;P1;durP1;ratioP1;P2;durP2;ratioP2
28353;SDS011;15603;50.878;8.036;2023-02-15T00:00:05;38.83;;;15.73;;
28353;SDS011;15603;50.878;8.036;2023-02-15T00:02:35;34.30;;;14.88;;
28353;SDS011;15603;50.878;8.036;2023-02-15T00:05:02;32.30;;;13.40;;
28353;SDS011;15603;50.878;8.036;2023-02-15T00:07:29;34.25;;;14.30;;
28353;SDS011;15603;50.878;8.036;2023-02-15T00:09:56;36.88;;;14.15;;
28353;SDS011;15603;50.878;8.036;2023-02-15T00:12:23;34.00;;;15.88;;
28353;SDS011;15603;50.878;8.036;2023-02-15T00:14:50;33.72;;;13.65;;
28353;SDS011;15603;50.878;8.036;2023-02-15T00:17:17;37.33;;;14.25;;
28353;SDS011;15603;50.878;8.036;2023-02-15T00:19:45;38.67;;;15.18;;
28353;SDS011;15603;50.878;8.036;2023-02-15T00:22:12;31.33;;;14.40;;
28353;SDS011;15603;50.878;8.036;2023-02-15T00:24:39;31.40;;;13.82;;
28353;SDS011;15603;50.878;8.036;2023-02-15T00:27:06;33.53;;;14.15;;
28353;SDS011;15603;50.878;8.036;2023-02-15T00:29:33;33.88;;;14.65;;
28353;SDS011;15603;50.878;8.036;2023-02-15T00:32:00;32.55;;;14.25;;
28353;SDS011;15603;50.878;8.036;2023-02-15T00:34:27;37.63;;;15.52;;
28353;SDS011;15603;50.878;8.036;2023-02-15T00:36:56;35.13;;;14.25;;
28353;SDS011;15603;50.878;8.036;2023-02-15T00:39:23;40.53;;;14.88;;
28353;SDS011;15603;50.878;8.036;2023-02-15T00:41:51;40.47;;;15.90;;
28353;SDS011;15603;50.878;8.036;2023-02-15T00:44:18;37.70;;;16.00;;
28353;SDS011;15603;50.878;8.036;2023-02-15T00:46:45;39.03;;;16.90;;
28353;SDS011;15603;50.878;8.036;2023-02-15T00:49:12;44.85;;;16.67;;
28353;SDS011;15603;50.878;8.036;2023-02-15T00:51:39;36.20;;;16.10;;
28353;SDS011;15603;50.878;8.036;2023-02-15T00:54:06;45.63;;;17.23;;
28353;SDS011;15603;50.878;8.036;2023-02-15T00:56:34;42.08;;;15.90;;
28353;SDS011;15603;50.878;8.036;2023-02-15T00:59:01;38.78;;;15.55;;
28353;SDS011;15603;50.878;8.036;2023-02-15T01:01:28;38.85;;;16.10;;
28353;SDS011;15603;50.878;8.036;2023-02-15T01:03:55;45.05;;;17.42;;
28353;SDS011;15603;50.878;8.036;2023-02-15T01:06:23;45.20;;;16.30;;
28353;SDS011;15603;50.878;8.036;2023-02-15T01:08:50;42.25;;;16.42;;
28353;SDS011;15603;50.878;8.036;2023-02-15T01:11:18;39.08;;;15.13;;
28353;SDS011;15603;50.878;8.036;2023-02-15T01:13:53;36.60;;;14.68;;
28353;SDS011;15603;50.878;8.036;2023-02-15T01:16:21;39.58;;;15.30;;
28353;SDS011;15603;50.878;8.036;2023-02-15T01:18:50;38.35;;;14.68;;
28353;SDS011;15603;50.878;8.036;2023-02-15T01:21:18;45.33;;;15.32;;
28353;SDS011;15603;50.878;8.036;2023-02-15T01:23:47;35.38;;;14.38;;
28353;SDS011;15603;50.878;8.036;2023-02-15T01:26:15;43.72;;;15.50;;
28353;SDS011;15603;50.878;8.036;2023-02-15T01:28:43;37.85;;;15.70;;
28353;SDS011;15603;50.878;8.036;2023-02-15T01:31:12;41.83;;;15.20;;
28353;SDS011;15603;50.878;8.036;2023-02-15T01:33:44;34.53;;;14.52;;
28353;SDS011;15603;50.878;8.036;2023-02-15T01:36:12;30.20;;;12.60;;
28353;SDS011;15603;50.878;8.036;2023-02-15T01:38:41;35.90;;;14.60;;
28353;SDS011;15603;50.878;8.036;2023-02-15T01:41:08;34.72;;;12.57;;
28353;SDS011;15603;50.878;8.036;2023-02-15T01:43:51;24.35;;;10.32;;
28353;SDS011;15603;50.878;8.036;2023-02-15T01:46:22;28.73;;;11.77;;
28353;SDS011;15603;50.878;8.036;2023-02-15T01:48:56;28.85;;;11.60;;
28353;SDS011;15603;50.878;8.036;2023-02-15T01:51:30;25.23;;;11.00;;
28353;SDS011;15603;50.878;8.036;2023-02-15T01:54:02;28.65;;;11.43;;
28353;SDS011;15603;50.878;8.036;2023-02-15T01:56:37;28.20;;;10.63;;
28353;SDS011;15603;50.878;8.036;2023-02-15T01:59:09;22.25;;;10.18;;
28353;SDS011;15603;50.878;8.036;2023-02-15T02:01:42;27.95;;;13.13;;
28353;SDS011;15603;50.878;8.036;2023-02-15T02:04:17;41.25;;;16.42;;
28353;SDS011;15603;50.878;8.036;2023-02-15T02:06:49;40.08;;;16.10;;
28353;SDS011;15603;50.878;8.036;2023-02-15T02:09:18;33.78;;;14.23;;
28353;SDS011;15603;50.878;8.036;2023-02-15T02:11:45;35.92;;;15.43;;
28353;SDS011;15603;50.878;8.036;2023-02-15T02:14:15;35.05;;;14.90;;
28353;SDS011;15603;50.878;8.036;2023-02-15T02:22:28;35.88;;;13.18;;
28353;SDS011;15603;50.878;8.036;2023-02-15T02:37:16;29.33;;;11.73;;
28353;SDS011;15603;50.878;8.036;2023-02-15T02:40:01;25.33;;;10.73;;
28353;SDS011;15603;50.878;8.036;2023-02-15T02:42:40;27.73;;;12.25;;
28353;SDS011;15603;50.878;8.036;2023-02-15T02:48:18;33.55;;;12.70;;
28353;SDS011;15603;50.878;8.036;2023-02-15T02:50:49;44.20;;;13.48;;
28353;SDS011;15603;50.878;8.036;2023-02-15T02:53:16;33.92;;;11.43;;
28353;SDS011;15603;50.878;8.036;2023-02-15T02:55:45;45.63;;;13.27;;
28353;SDS011;15603;50.878;8.036;2023-02-15T03:01:43;28.08;;;11.45;;
28353;SDS011;15603;50.878;8.036;2023-02-15T03:07:04;28.85;;;10.80;;
28353;SDS011;15603;50.878;8.036;2023-02-15T03:09:38;21.02;;;9.40;;
28353;SDS011;15603;50.878;8.036;2023-02-15T03:12:13;22.00;;;9.07;;
28353;SDS011;15603;50.878;8.036;2023-02-15T03:14:58;23.05;;;9.43;;
28353;SDS011;15603;50.878;8.036;2023-02-15T03:17:29;17.58;;;8.00;;
28353;SDS011;15603;50.878;8.036;2023-02-15T03:20:01;21.48;;;9.50;;
28353;SDS011;15603;50.878;8.036;2023-02-15T03:22:36;22.85;;;9.68;;
28353;SDS011;15603;50.878;8.036;2023-02-15T03:25:39;20.90;;;9.30;;
28353;SDS011;15603;50.878;8.036;2023-02-15T03:28:15;29.95;;;10.57;;
28353;SDS011;15603;50.878;8.036;2023-02-15T03:30:45;24.15;;;9.70;;
28353;SDS011;15603;50.878;8.036;2023-02-15T03:33:18;19.25;;;8.48;;
28353;SDS011;15603;50.878;8.036;2023-02-15T03:35:57;29.30;;;10.88;;
28353;SDS011;15603;50.878;8.036;2023-02-15T03:38:33;24.75;;;10.00;;
28353;SDS011;15603;50.878;8.036;2023-02-15T03:41:04;32.97;;;10.10;;
28353;SDS011;15603;50.878;8.036;2023-02-15T03:46:51;22.85;;;9.88;;
28353;SDS011;15603;50.878;8.036;2023-02-15T03:49:37;29.00;;;9.90;;
28353;SDS011;15603;50.878;8.036;2023-02-15T03:52:11;28.38;;;9.38;;
28353;SDS011;15603;50.878;8.036;2023-02-15T03:54:41;23.13;;;8.98;;
28353;SDS011;15603;50.878;8.036;2023-02-15T03:57:12;42.17;;;12.43;;
28353;SDS011;15603;50.878;8.036;2023-02-15T04:00:24;36.33;;;11.52;;
28353;SDS011;15603;50.878;8.036;2023-02-15T04:05:44;32.30;;;11.02;;
28353;SDS011;15603;50.878;8.036;2023-02-15T04:08:11;36.15;;;10.50;;
28353;SDS011;15603;50.878;8.036;2023-02-15T04:10:39;26.23;;;8.55;;
28353;SDS011;15603;50.878;8.036;2023-02-15T04:13:22;30.23;;;10.20;;
28353;SDS011;15603;50.878;8.036;2023-02-15T04:15:51;19.85;;;8.52;;
28353;SDS011;15603;50.878;8.036;2023-02-15T04:18:31;28.83;;;10.57;;
28353;SDS011;15603;50.878;8.036;2023-02-15T04:21:18;21.15;;;8.88;;
28353;SDS011;15603;50.878;8.036;2023-02-15T04:24:05;21.30;;;8.75;;
28353;SDS011;15603;50.878;8.036;2023-02-15T04:26:51;23.35;;;9.95;;
28353;SDS011;15603;50.878;8.036;2023-02-15T04:29:23;27.30;;;11.13;;
28353;SDS011;15603;50.878;8.036;2023-02-15T04:31:51;28.63;;;10.68;;
28353;SDS011;15603;50.878;8.036;2023-02-15T04:34:19;24.55;;;10.13;;
28353;SDS011;15603;50.878;8.036;2023-02-15T04:36:47;26.65;;;10.02;;
28353;SDS011;15603;50.878;8.036;2023-02-15T04:39:14;25.20;;;8.98;;
28353;SDS011;15603;50.878;8.036;2023-02-15T04:41:43;23.67;;;9.50;;
28353;SDS011;15603;50.878;8.036;2023-02-15T04:44:10;26.10;;;9.88;;
28353;SDS011;15603;50.878;8.036;2023-02-15T04:46:38;29.80;;;10.65;;
28353;SDS011;15603;50.878;8.036;2023-02-15T04:49:05;35.47;;;12.25;;
28353;SDS011;15603;50.878;8.036;2023-02-15T04:51:32;34.03;;;11.75;;
28353;SDS011;15603;50.878;8.036;2023-02-15T04:53:59;30.90;;;11.10;;
28353;SDS011;15603;50.878;8.036;2023-02-15T04:56:26;44.65;;;12.85;;
28353;SDS011;15603;50.878;8.036;2023-02-15T04:58:54;34.88;;;12.63;;
28353;SDS011;15603;50.878;8.036;2023-02-15T05:01:21;49.65;;;14.43;;
28353;SDS011;15603;50.878;8.036;2023-02-15T05:03:48;34.45;;;13.07;;
28353;SDS011;15603;50.878;8.036;2023-02-15T05:06:15;42.25;;;12.98;;
28353;SDS011;15603;50.878;8.036;2023-02-15T05:08:42;40.70;;;12.32;;
28353;SDS011;15603;50.878;8.036;2023-02-15T05:11:09;41.22;;;14.50;;
28353;SDS011;15603;50.878;8.036;2023-02-15T05:13:36;39.85;;;12.77;;
28353;SDS011;15603;50.878;8.036;2023-02-15T05:16:03;39.25;;;12.90;;
28353;SDS011;15603;50.878;8.036;2023-02-15T05:18:30;42.03;;;14.50;;
28353;SDS011;15603;50.878;8.036;2023-02-15T05:20:58;44.90;;;18.02;;
28353;SDS011;15603;50.878;8.036;2023-02-15T05:23:25;41.55;;;15.52;;
28353;SDS011;15603;50.878;8.036;2023-02-15T05:25:52;43.33;;;14.43;;
28353;SDS011;15603;50.878;8.036;2023-02-15T05:28:38;44.30;;;17.92;;
28353;SDS011;15603;50.878;8.036;2023-02-15T05:31:07;49.75;;;18.42;;
28353;SDS011;15603;50.878;8.036;2023-02-15T05:33:37;47.17;;;19.10;;
28353;SDS011;15603;50.878;8.036;2023-02-15T05:36:05;43.30;;;19.20;;
28353;SDS011;15603;50.878;8.036;2023-02-15T05:38:33;38.53;;;17.17;;
28353;SDS011;15603;50.878;8.036;2023-02-15T05:41:00;52.25;;;17.45;;
28353;SDS011;15603;50.878;8.036;2023-02-15T05:43:27;52.38;;;17.77;;
28353;SDS011;15603;50.878;8.036;2023-02-15T05:45:54;45.60;;;17.30;;
28353;SDS011;15603;50.878;8.036;2023-02-15T05:48:22;38.22;;;13.20;;
28353;SDS011;15603;50.878;8.036;2023-02-15T05:51:02;32.08;;;13.18;;
28353;SDS011;15603;50.878;8.036;2023-02-15T05:53:31;41.97;;;13.55;;
28353;SDS011;15603;50.878;8.036;2023-02-15T05:55:59;36.45;;;12.45;;
28353;SDS011;15603;50.878;8.036;2023-02-15T05:58:30;37.35;;;12.15;;
28353;SDS011;15603;50.878;8.036;2023-02-15T06:00:59;30.52;;;12.05;;
28353;SDS011;15603;50.878;8.036;2023-02-15T06:03:26;39.60;;;13.77;;
28353;SDS011;15603;50.878;8.036;2023-02-15T06:05:55;34.47;;;13.00;;
28353;SDS011;15603;50.878;8.036;2023-02-15T06:08:22;27.48;;;10.88;;
28353;SDS011;15603;50.878;8.036;2023-02-15T06:10:49;33.72;;;11.80;;
28353;SDS011;15603;50.878;8.036;2023-02-15T06:13:16;34.38;;;11.00;;
28353;SDS011;15603;50.878;8.036;2023-02-15T06:15:43;35.97;;;12.68;;
28353;SDS011;15603;50.878;8.036;2023-02-15T06:18:10;29.40;;;11.50;;
28353;SDS011;15603;50.878;8.036;2023-02-15T06:20:37;31.60;;;11.98;;
28353;SDS011;15603;50.878;8.036;2023-02-15T06:23:04;32.47;;;11.10;;
28353;SDS011;15603;50.878;8.036;2023-02-15T06:25:31;32.95;;;12.27;;
28353;SDS011;15603;50.878;8.036;2023-02-15T06:28:01;28.73;;;11.95;;
28353;SDS011;15603;50.878;8.036;2023-02-15T06:30:28;40.20;;;12.10;;
28353;SDS011;15603;50.878;8.036;2023-02-15T06:32:56;27.92;;;12.13;;
28353;SDS011;15603;50.878;8.036;2023-02-15T06:35:23;35.67;;;12.15;;
28353;SDS011;15603;50.878;8.036;2023-02-15T06:37:50;30.45;;;11.82;;
28353;SDS011;15603;50.878;8.036;2023-02-15T06:40:17;38.50;;;13.40;;
28353;SDS011;15603;50.878;8.036;2023-02-15T06:42:44;45.22;;;16.02;;
28353;SDS011;15603;50.878;8.036;2023-02-15T06:45:11;37.90;;;12.40;;
28353;SDS011;15603;50.878;8.036;2023-02-15T06:47:39;37.60;;;13.18;;
28353;SDS011;15603;50.878;8.036;2023-02-15T06:50:06;44.00;;;12.68;;
28353;SDS011;15603;50.878;8.036;2023-02-15T06:52:34;29.65;;;11.93;;
28353;SDS011;15603;50.878;8.036;2023-02-15T06:55:01;26.83;;;11.18;;
28353;SDS011;15603;50.878;8.036;2023-02-15T06:57:28;31.27;;;11.75;;
28353;SDS011;15603;50.878;8.036;2023-02-15T06:59:55;30.70;;;10.50;;
28353;SDS011;15603;50.878;8.036;2023-02-15T07:02:22;29.92;;;11.27;;
28353;SDS011;15603;50.878;8.036;2023-02-15T07:04:49;24.75;;;10.95;;
28353;SDS011;15603;50.878;8.036;2023-02-15T07:07:16;32.72;;;11.68;;
28353;SDS011;15603;50.878;8.036;2023-02-15T07:09:43;31.42;;;11.65;;
28353;SDS011;15603;50.878;8.036;2023-02-15T07:12:10;35.03;;;12.10;;
28353;SDS011;15603;50.878;8.036;2023-02-15T07:14:56;29.40;;;11.82;;
28353;SDS011;15603;50.878;8.036;2023-02-15T07:17:24;30.92;;;11.30;;
28353;SDS011;15603;50.878;8.036;2023-02-15T07:20:03;36.00;;;11.10;;
28353;SDS011;15603;50.878;8.036;2023-02-15T07:22:32;31.95;;;12.25;;
28353;SDS011;15603;50.878;8.036;2023-02-15T07:25:00;30.63;;;12.18;;
28353;SDS011;15603;50.878;8.036;2023-02-15T07:27:27;31.52;;;12.05;;
28353;SDS011;15603;50.878;8.036;2023-02-15T07:29:55;37.08;;;14.32;;
28353;SDS011;15603;50.878;8.036;2023-02-15T07:32:22;35.47;;;12.95;;
28353;SDS011;15603;50.878;8.036;2023-02-15T07:34:49;34.10;;;11.40;;
28353;SDS011;15603;50.878;8.036;2023-02-15T07:37:16;26.52;;;11.23;;
28353;SDS011;15603;50.878;8.036;2023-02-15T07:39:43;34.15;;;12.30;;
28353;SDS011;15603;50.878;8.036;2023-02-15T07:42:10;34.63;;;12.68;;
28353;SDS011;15603;50.878;8.036;2023-02-15T07:44:37;24.80;;;10.23;;
28353;SDS011;15603;50.878;8.036;2023-02-15T07:47:04;23.60;;;9.50;;
28353;SDS011;15603;50.878;8.036;2023-02-15T07:49:31;23.80;;;8.73;;
28353;SDS011;15603;50.878;8.036;2023-02-15T07:51:59;27.60;;;10.52;;
28353;SDS011;15603;50.878;8.036;2023-02-15T07:54:27;18.65;;;8.43;;
28353;SDS011;15603;50.878;8.036;2023-02-15T07:56:54;31.05;;;10.75;;
28353;SDS011;15603;50.878;8.036;2023-02-15T07:59:21;28.42;;;11.43;;
28353;SDS011;15603;50.878;8.036;2023-02-15T08:01:48;24.10;;;9.85;;
28353;SDS011;15603;50.878;8.036;2023-02-15T08:04:15;31.60;;;11.00;;
28353;SDS011;15603;50.878;8.036;2023-02-15T08:06:44;29.08;;;10.20;;
28353;SDS011;15603;50.878;8.036;2023-02-15T08:09:11;32.05;;;10.82;;
28353;SDS011;15603;50.878;8.036;2023-02-15T08:11:38;27.15;;;9.73;;
28353;SDS011;15603;50.878;8.036;2023-02-15T08:14:16;27.33;;;10.20;;
28353;SDS011;15603;50.878;8.036;2023-02-15T08:16:45;23.92;;;8.75;;
28353;SDS011;15603;50.878;8.036;2023-02-15T08:19:24;22.98;;;10.40;;
28353;SDS011;15603;50.878;8.036;2023-02-15T08:21:59;23.95;;;9.98;;
28353;SDS011;15603;50.878;8.036;2023-02-15T08:24:35;20.77;;;8.75;;
28353;SDS011;15603;50.878;8.036;2023-02-15T08:27:04;22.50;;;8.20;;
28353;SDS011;15603;50.878;8.036;2023-02-15T08:29:33;20.95;;;8.20;;
28353;SDS011;15603;50.878;8.036;2023-02-15T08:32:03;18.55;;;8.32;;
28353;SDS011;15603;50.878;8.036;2023-02-15T08:34:33;22.25;;;8.93;;
28353;SDS011;15603;50.878;8.036;2023-02-15T08:37:02;17.48;;;7.60;;
28353;SDS011;15603;50.878;8.036;2023-02-15T08:39:29;21.80;;;9.52;;
28353;SDS011;15603;50.878;8.036;2023-02-15T08:41:56;21.80;;;9.30;;
28353;SDS011;15603;50.878;8.036;2023-02-15T08:44:23;17.55;;;8.05;;
28353;SDS011;15603;50.878;8.036;2023-02-15T08:46:50;19.58;;;7.53;;
28353;SDS011;15603;50.878;8.036;2023-02-15T08:49:18;19.38;;;8.13;;
28353;SDS011;15603;50.878;8.036;2023-02-15T08:51:47;21.63;;;7.97;;
28353;SDS011;15603;50.878;8.036;2023-02-15T08:54:18;21.17;;;8.02;;
28353;SDS011;15603;50.878;8.036;2023-02-15T08:56:46;18.40;;;7.60;;
28353;SDS011;15603;50.878;8.036;2023-02-15T08:59:15;17.98;;;8.10;;
28353;SDS011;15603;50.878;8.036;2023-02-15T09:01:44;16.55;;;7.15;;
28353;SDS011;15603;50.878;8.036;2023-02-15T09:04:13;17.80;;;7.70;;
28353;SDS011;15603;50.878;8.036;2023-02-15T09:06:42;17.25;;;7.35;;
28353;SDS011;15603;50.878;8.036;2023-02-15T09:09:14;14.43;;;7.07;;
28353;SDS011;15603;50.878;8.036;2023-02-15T09:11:42;18.92;;;7.32;;
28353;SDS011;15603;50.878;8.036;2023-02-15T09:14:12;13.10;;;6.30;;
28353;SDS011;15603;50.878;8.036;2023-02-15T09:16:42;15.95;;;7.57;;
28353;SDS011;15603;50.878;8.036;2023-02-15T09:19:13;13.48;;;7.45;;
28353;SDS011;15603;50.878;8.036;2023-02-15T09:21:40;20.65;;;7.90;;
28353;SDS011;15603;50.878;8.036;2023-02-15T09:24:08;15.57;;;6.75;;
28353;SDS011;15603;50.878;8.036;2023-02-15T09:26:38;17.05;;;7.30;;
28353;SDS011;15603;50.878;8.036;2023-02-15T09:29:09;14.63;;;7.07;;
28353;SDS011;15603;50.878;8.036;2023-02-15T09:31:37;20.77;;;8.40;;
28353;SDS011;15603;50.878;8.036;2023-02-15T09:34:13;14.05;;;7.03;;
28353;SDS011;15603;50.878;8.036;2023-02-15T09:36:42;13.48;;;6.47;;
28353;SDS011;15603;50.878;8.036;2023-02-15T09:39:11;17.10;;;6.63;;
28353;SDS011;15603;50.878;8.036;2023-02-15T09:44:28;23.75;;;7.30;;
28353;SDS011;15603;50.878;8.036;2023-02-15T09:47:18;18.50;;;7.18;;
28353;SDS011;15603;50.878;8.036;2023-02-15T09:58:13;14.32;;;6.85;;
28353;SDS011;15603;50.878;8.036;2023-02-15T10:03:14;16.77;;;6.93;;
28353;SDS011;15603;50.878;8.036;2023-02-15T10:11:20;15.75;;;7.25;;
28353;SDS011;15603;50.878;8.036;2023-02-15T10:14:22;17.63;;;7.65;;
28353;SDS011;15603;50.878;8.036;2023-02-15T10:22:44;18.15;;;8.30;;
28353;SDS011;15603;50.878;8.036;2023-02-15T10:28:45;17.45;;;7.97;;
28353;SDS011;15603;50.878;8.036;2023-02-15T10:34:03;20.20;;;8.90;;
28353;SDS011;15603;50.878;8.036;2023-02-15T10:45:53;19.38;;;7.90;;
28353;SDS011;15603;50.878;8.036;2023-02-15T10:55:56;18.50;;;9.13;;
28353;SDS011;15603;50.878;8.036;2023-02-15T11:03:45;22.38;;;9.38;;
28353;SDS011;15603;50.878;8.036;2023-02-15T11:06:16;18.83;;;9.43;;
28353;SDS011;15603;50.878;8.036;2023-02-15T11:08:47;23.27;;;10.25;;
28353;SDS011;15603;50.878;8.036;2023-02-15T11:11:21;25.17;;;9.57;;
28353;SDS011;15603;50.878;8.036;2023-02-15T11:13:54;16.80;;;9.05;;
28353;SDS011;15603;50.878;8.036;2023-02-15T11:16:28;19.15;;;9.02;;
28353;SDS011;15603;50.878;8.036;2023-02-15T11:21:40;16.27;;;7.57;;
28353;SDS011;15603;50.878;8.036;2023-02-15T11:24:13;17.88;;;8.23;;
28353;SDS011;15603;50.878;8.036;2023-02-15T11:29:52;19.55;;;8.73;;
28353;SDS011;15603;50.878;8.036;2023-02-15T11:32:23;21.05;;;8.75;;
28353;SDS011;15603;50.878;8.036;2023-02-15T11:40:17;22.38;;;9.00;;
28353;SDS011;15603;50.878;8.036;2023-02-15T11:42:46;23.15;;;9.38;;
28353;SDS011;15603;50.878;8.036;2023-02-15T11:45:26;20.60;;;8.43;;
28353;SDS011;15603;50.878;8.036;2023-02-15T11:47:56;16.52;;;7.78;;
28353;SDS011;15603;50.878;8.036;2023-02-15T11:50:26;17.90;;;9.00;;
28353;SDS011;15603;50.878;8.036;2023-02-15T11:52:59;22.30;;;8.77;;
28353;SDS011;15603;50.878;8.036;2023-02-15T11:55:29;20.75;;;9.27;;
28353;SDS011;15603;50.878;8.036;2023-02-15T11:58:00;20.80;;;9.50;;
28353;SDS011;15603;50.878;8.036;2023-02-15T12:00:49;17.40;;;8.27;;
28353;SDS011;15603;50.878;8.036;2023-02-15T12:03:24;18.42;;;8.52;;
28353;SDS011;15603;50.878;8.036;2023-02-15T12:05:58;20.63;;;8.88;;
28353;SDS011;15603;50.878;8.036;2023-02-15T12:08:34;17.25;;;7.43;;
28353;SDS011;15603;50.878;8.036;2023-02-15T12:11:06;16.42;;;7.97;;
28353;SDS011;15603;50.878;8.036;2023-02-15T12:13:55;19.58;;;8.05;;
28353;SDS011;15603;50.878;8.036;2023-02-15T12:16:23;16.40;;;8.20;;
28353;SDS011;15603;50.878;8.036;2023-02-15T12:18:52;19.38;;;8.52;;
28353;SDS011;15603;50.878;8.036;2023-02-15T12:21:26;17.42;;;8.35;;
28353;SDS011;15603;50.878;8.036;2023-02-15T12:23:56;17.35;;;8.10;;
28353;SDS011;15603;50.878;8.036;2023-02-15T12:26:30;18.42;;;8.10;;
28353;SDS011;15603;50.878;8.036;2023-02-15T12:29:01;20.42;;;9.43;;
28353;SDS011;15603;50.878;8.036;2023-02-15T12:31:43;19.67;;;8.77;;
28353;SDS011;15603;50.878;8.036;2023-02-15T12:34:21;15.93;;;8.27;;
28353;SDS011;15603;50.878;8.036;2023-02-15T12:36:53;32.28;;;9.85;;
28353;SDS011;15603;50.878;8.036;2023-02-15T12:39:25;20.70;;;10.43;;
28353;SDS011;15603;50.878;8.036;2023-02-15T12:44:22;19.88;;;9.00;;
28353;SDS011;15603;50.878;8.036;2023-02-15T12:49:26;19.52;;;8.85;;
28353;SDS011;15603;50.878;8.036;2023-02-15T12:51:56;20.90;;;9.38;;
28353;SDS011;15603;50.878;8.036;2023-02-15T12:56:59;21.30;;;9.70;;
28353;SDS011;15603;50.878;8.036;2023-02-15T12:59:52;24.65;;;9.15;;
28353;SDS011;15603;50.878;8.036;2023-02-15T13:04:53;16.77;;;7.68;;
28353;SDS011;15603;50.878;8.036;2023-02-15T13:07:22;19.65;;;9.50;;
28353;SDS011;15603;50.878;8.036;2023-02-15T13:09:51;17.27;;;8.27;;
28353;SDS011;15603;50.878;8.036;2023-02-15T13:12:23;20.77;;;9.32;;
28353;SDS011;15603;50.878;8.036;2023-02-15T13:14:53;19.55;;;8.50;;
28353;SDS011;15603;50.878;8.036;2023-02-15T13:17:26;19.20;;;9.07;;
28353;SDS011;15603;50.878;8.036;2023-02-15T13:20:06;15.55;;;8.23;;
28353;SDS011;15603;50.878;8.036;2023-02-15T13:22:50;18.95;;;8.50;;
28353;SDS011;15603;50.878;8.036;2023-02-15T13:25:23;18.45;;;9.52;;
28353;SDS011;15603;50.878;8.036;2023-02-15T13:27:53;18.65;;;8.02;;
28353;SDS011;15603;50.878;8.036;2023-02-15T13:30:27;18.00;;;8.40;;
28353;SDS011;15603;50.878;8.036;2023-02-15T13:33:00;24.38;;;9.38;;
28353;SDS011;15603;50.878;8.036;2023-02-15T13:35:35;20.58;;;8.77;;
28353;SDS011;15603;50.878;8.036;2023-02-15T13:38:17;22.65;;;9.52;;
28353;SDS011;15603;50.878;8.036;2023-02-15T13:41:12;22.45;;;10.27;;
28353;SDS011;15603;50.878;8.036;2023-02-15T13:51:43;23.42;;;9.20;;
28353;SDS011;15603;50.878;8.036;2023-02-15T13:54:42;18.52;;;8.55;;
28353;SDS011;15603;50.878;8.036;2023-02-15T14:00:16;23.67;;;9.20;;
28353;SDS011;15603;50.878;8.036;2023-02-15T14:05:51;22.67;;;9.32;;
28353;SDS011;15603;50.878;8.036;2023-02-15T14:11:15;24.88;;;10.05;;
28353;SDS011;15603;50.878;8.036;2023-02-15T14:28:51;29.00;;;10.95;;
28353;SDS011;15603;50.878;8.036;2023-02-15T14:31:35;22.30;;;9.48;;
28353;SDS011;15603;50.878;8.036;2023-02-15T14:34:19;23.45;;;10.77;;
28353;SDS011;15603;50.878;8.036;2023-02-15T14:36:50;23.25;;;9.68;;
28353;SDS011;15603;50.878;8.036;2023-02-15T14:39:31;24.48;;;9.55;;
28353;SDS011;15603;50.878;8.036;2023-02-15T14:42:30;23.30;;;10.55;;
28353;SDS011;15603;50.878;8.036;2023-02-15T14:47:44;25.00;;;10.32;;
28353;SDS011;15603;50.878;8.036;2023-02-15T14:55:43;23.17;;;11.13;;
28353;SDS011;15603;50.878;8.036;2023-02-15T14:58:11;24.30;;;11.15;;
28353;SDS011;15603;50.878;8.036;2023-02-15T15:00:40;21.80;;;10.40;;
28353;SDS011;15603;50.878;8.036;2023-02-15T15:03:21;21.15;;;10.50;;
28353;SDS011;15603;50.878;8.036;2023-02-15T15:05:52;23.90;;;10.95;;
28353;SDS011;15603;50.878;8.036;2023-02-15T15:08:47;22.02;;;11.10;;
28353;SDS011;15603;50.878;8.036;2023-02-15T15:14:09;24.90;;;11.15;;
28353;SDS011;15603;50.878;8.036;2023-02-15T15:16:57;27.00;;;11.43;;
28353;SDS011;15603;50.878;8.036;2023-02-15T15:22:21;25.60;;;10.82;;
28353;SDS011;15603;50.878;8.036;2023-02-15T15:24:53;26.58;;;11.32;;
28353;SDS011;15603;50.878;8.036;2023-02-15T15:44:42;25.02;;;11.27;;
28353;SDS011;15603;50.878;8.036;2023-02-15T15:50:33;31.00;;;12.93;;
28353;SDS011;15603;50.878;8.036;2023-02-15T15:53:01;27.92;;;11.75;;
28353;SDS011;15603;50.878;8.036;2023-02-15T15:55:30;27.38;;;11.60;;
28353;SDS011;15603;50.878;8.036;2023-02-15T15:57:59;29.58;;;13.27;;
28353;SDS011;15603;50.878;8.036;2023-02-15T16:03:16;30.33;;;13.25;;
28353;SDS011;15603;50.878;8.036;2023-02-15T16:05:48;31.30;;;13.25;;
28353;SDS011;15603;50.878;8.036;2023-02-15T16:08:34;28.98;;;12.73;;
28353;SDS011;15603;50.878;8.036;2023-02-15T16:13:47;31.15;;;13.18;;
28353;SDS011;15603;50.878;8.036;2023-02-15T16:16:19;28.50;;;13.23;;
28353;SDS011;15603;50.878;8.036;2023-02-15T16:18:49;32.28;;;13.50;;
28353;SDS011;15603;50.878;8.036;2023-02-15T16:21:21;30.38;;;12.70;;
28353;SDS011;15603;50.878;8.036;2023-02-15T16:24:06;32.85;;;14.40;;
28353;SDS011;15603;50.878;8.036;2023-02-15T16:29:57;40.23;;;14.93;;
28353;SDS011;15603;50.878;8.036;2023-02-15T16:32:26;35.80;;;15.13;;
28353;SDS011;15603;50.878;8.036;2023-02-15T16:37:34;33.28;;;14.88;;
28353;SDS011;15603;50.878;8.036;2023-02-15T16:40:01;29.90;;;13.45;;
28353;SDS011;15603;50.878;8.036;2023-02-15T16:42:29;34.47;;;13.68;;
28353;SDS011;15603;50.878;8.036;2023-02-15T16:45:12;37.53;;;15.10;;
28353;SDS011;15603;50.878;8.036;2023-02-15T16:47:44;38.17;;;15.88;;
28353;SDS011;15603;50.878;8.036;2023-02-15T16:50:33;39.00;;;15.07;;
28353;SDS011;15603;50.878;8.036;2023-02-15T16:53:04;35.83;;;14.57;;
28353;SDS011;15603;50.878;8.036;2023-02-15T16:55:39;41.15;;;16.10;;
28353;SDS011;15603;50.878;8.036;2023-02-15T16:58:13;41.85;;;17.15;;
28353;SDS011;15603;50.878;8.036;2023-02-15T17:00:43;43.95;;;16.48;;
28353;SDS011;15603;50.878;8.036;2023-02-15T17:08:17;36.40;;;15.02;;
28353;SDS011;15603;50.878;8.036;2023-02-15T17:16:31;40.72;;;14.82;;
28353;SDS011;15603;50.878;8.036;2023-02-15T17:19:00;35.17;;;15.55;;
28353;SDS011;15603;50.878;8.036;2023-02-15T17:21:30;43.03;;;16.13;;
28353;SDS011;15603;50.878;8.036;2023-02-15T17:24:01;33.87;;;14.27;;
28353;SDS011;15603;50.878;8.036;2023-02-15T17:26:31;38.72;;;15.27;;
28353;SDS011;15603;50.878;8.036;2023-02-15T17:29:02;39.20;;;16.30;;
28353;SDS011;15603;50.878;8.036;2023-02-15T17:31:55;40.20;;;15.85;;
28353;SDS011;15603;50.878;8.036;2023-02-15T17:37:24;36.85;;;15.02;;
28353;SDS011;15603;50.878;8.036;2023-02-15T17:39:53;37.30;;;15.70;;
28353;SDS011;15603;50.878;8.036;2023-02-15T17:42:21;38.53;;;15.93;;
28353;SDS011;15603;50.878;8.036;2023-02-15T17:44:48;43.50;;;16.23;;
28353;SDS011;15603;50.878;8.036;2023-02-15T17:47:17;43.97;;;17.33;;
28353;SDS011;15603;50.878;8.036;2023-02-15T17:49:46;39.38;;;16.60;;
28353;SDS011;15603;50.878;8.036;2023-02-15T17:52:16;37.47;;;16.10;;
28353;SDS011;15603;50.878;8.036;2023-02-15T17:54:44;46.38;;;18.00;;
28353;SDS011;15603;50.878;8.036;2023-02-15T17:57:30;38.50;;;16.50;;
28353;SDS011;15603;50.878;8.036;2023-02-15T17:59:57;44.95;;;17.27;;
28353;SDS011;15603;50.878;8.036;2023-02-15T18:02:43;44.83;;;17.17;;
28353;SDS011;15603;50.878;8.036;2023-02-15T18:05:29;42.72;;;17.35;;
28353;SDS011;15603;50.878;8.036;2023-02-15T18:08:15;39.92;;;15.88;;
28353;SDS011;15603;50.878;8.036;2023-02-15T18:11:02;44.60;;;16.90;;